createdAt,value
2023-08-23T00:02:02.233Z,17.30
2023-08-23T00:04:35.509Z,17.40
2023-08-23T00:07:05.224Z,17.40
2023-08-23T00:09:33.630Z,17.30
2023-08-23T00:12:02.105Z,17.30
2023-08-23T00:14:31.580Z,17.30
2023-08-23T00:17:01.612Z,17.20
2023-08-23T00:19:30.042Z,17.20
2023-08-23T00:21:58.392Z,17.20
2023-08-23T00:24:26.766Z,17.20
2023-08-23T00:26:56.732Z,17.20
2023-08-23T00:29:25.200Z,17.20
2023-08-23T00:31:53.574Z,17.10
2023-08-23T00:34:23.400Z,17.10
2023-08-23T00:36:51.871Z,17.10
2023-08-23T00:39:20.224Z,17.00
2023-08-23T00:41:48.719Z,17.10
2023-08-23T00:44:17.217Z,17.00
2023-08-23T00:46:45.691Z,17.00
2023-08-23T00:49:14.608Z,17.00
2023-08-23T00:51:44.585Z,17.00
2023-08-23T00:54:13.056Z,16.90
2023-08-23T00:56:41.602Z,16.80
2023-08-23T00:59:10.698Z,16.80
2023-08-23T01:01:39.199Z,16.70
2023-08-23T01:04:07.620Z,16.70
2023-08-23T01:06:53.286Z,16.70
2023-08-23T01:09:33.551Z,16.70
2023-08-23T01:12:09.686Z,16.70
2023-08-23T01:14:44.758Z,16.60
2023-08-23T01:17:15.951Z,16.60
2023-08-23T01:19:45.911Z,16.60
2023-08-23T01:22:24.114Z,16.60
2023-08-23T01:24:54.959Z,16.60
2023-08-23T01:27:23.673Z,16.50
2023-08-23T01:29:52.025Z,16.40
2023-08-23T01:32:37.219Z,16.50
2023-08-23T01:35:12.779Z,16.40
2023-08-23T01:37:42.281Z,16.30
2023-08-23T01:40:13.428Z,16.30
2023-08-23T01:42:42.359Z,16.30
2023-08-23T01:45:11.585Z,16.30
2023-08-23T01:47:41.130Z,16.30
2023-08-23T01:50:10.533Z,16.20
2023-08-23T01:52:39.974Z,16.10
2023-08-23T01:55:10.518Z,16.20
2023-08-23T01:57:41.400Z,16.20
2023-08-23T02:00:11.461Z,16.10
2023-08-23T02:02:43.029Z,16.10
2023-08-23T02:05:11.461Z,16.00
2023-08-23T02:07:39.948Z,16.00
2023-08-23T02:10:09.215Z,16.00
2023-08-23T02:12:38.956Z,15.90
2023-08-23T02:15:08.823Z,15.90
2023-08-23T02:17:37.299Z,15.90
2023-08-23T02:20:08.051Z,15.90
2023-08-23T02:22:36.822Z,15.90
2023-08-23T02:25:05.582Z,15.80
2023-08-23T02:27:34.008Z,15.80
2023-08-23T02:30:03.783Z,15.80
2023-08-23T02:32:32.279Z,15.80
2023-08-23T02:35:00.809Z,15.80
2023-08-23T02:37:29.177Z,15.70
2023-08-23T02:39:59.316Z,15.70
2023-08-23T02:42:27.996Z,15.70
2023-08-23T02:44:56.446Z,15.70
2023-08-23T02:47:26.324Z,15.70
2023-08-23T02:49:56.462Z,15.80
2023-08-23T02:52:24.907Z,15.70
2023-08-23T02:54:53.354Z,15.80
2023-08-23T02:57:21.770Z,15.80
2023-08-23T02:59:50.223Z,15.80
2023-08-23T03:02:19.487Z,15.70
2023-08-23T03:04:49.386Z,15.70
2023-08-23T03:07:17.726Z,15.60
2023-08-23T03:09:46.106Z,15.60
2023-08-23T03:12:14.566Z,15.50
2023-08-23T03:14:43.145Z,15.50
2023-08-23T03:17:11.757Z,15.50
2023-08-23T03:19:40.623Z,15.60
2023-08-23T03:22:10.400Z,15.50
2023-08-23T03:24:38.912Z,15.50
2023-08-23T03:27:07.801Z,15.50
2023-08-23T03:29:36.377Z,15.50
2023-08-23T03:32:05.752Z,15.50
2023-08-23T03:34:34.187Z,15.40
2023-08-23T03:37:02.643Z,15.40
2023-08-23T03:39:32.432Z,15.40
2023-08-23T03:42:00.876Z,15.30
2023-08-23T03:44:29.530Z,15.30
2023-08-23T03:46:58.408Z,15.30
2023-08-23T03:49:29.401Z,15.20
2023-08-23T03:51:59.152Z,15.20
2023-08-23T03:54:27.594Z,15.20
2023-08-23T03:56:57.416Z,15.30
2023-08-23T03:59:25.866Z,15.30
2023-08-23T04:01:54.258Z,15.30
2023-08-23T04:04:24.753Z,15.30
2023-08-23T04:06:53.297Z,15.30
2023-08-23T04:09:21.739Z,15.20
2023-08-23T04:11:51.125Z,15.20
2023-08-23T04:14:20.932Z,15.20
2023-08-23T04:16:49.450Z,15.20
2023-08-23T04:19:17.994Z,15.10
2023-08-23T04:21:48.189Z,15.10
2023-08-23T04:24:17.961Z,15.20
2023-08-23T04:26:46.432Z,15.20
2023-08-23T04:29:15.310Z,15.20
2023-08-23T04:31:46.232Z,15.10
2023-08-23T04:34:24.079Z,15.20
2023-08-23T04:36:53.161Z,15.20
2023-08-23T04:39:21.513Z,15.20
2023-08-23T04:41:49.995Z,15.20
2023-08-23T04:44:18.389Z,15.20
2023-08-23T04:46:48.217Z,15.20
2023-08-23T04:49:17.133Z,15.10
2023-08-23T04:51:45.591Z,15.10
2023-08-23T04:54:13.948Z,15.00
2023-08-23T04:56:42.475Z,15.00
2023-08-23T04:59:10.806Z,15.00
2023-08-23T05:01:39.258Z,15.00
2023-08-23T05:04:09.625Z,15.00
2023-08-23T05:06:39.060Z,15.00
2023-08-23T05:09:07.422Z,15.10
2023-08-23T05:11:35.958Z,15.10
2023-08-23T05:14:06.190Z,15.10
2023-08-23T05:16:34.919Z,15.10
2023-08-23T05:19:03.912Z,15.20
2023-08-23T05:21:33.801Z,15.20
2023-08-23T05:24:02.182Z,15.20
2023-08-23T05:26:30.608Z,15.20
2023-08-23T05:28:58.930Z,15.30
2023-08-23T05:31:27.361Z,15.30
2023-08-23T05:33:55.992Z,15.30
2023-08-23T05:36:26.037Z,15.40
2023-08-23T05:38:56.728Z,15.40
2023-08-23T05:41:25.193Z,15.50
2023-08-23T05:43:53.633Z,15.60
2023-08-23T05:46:22.149Z,15.70
2023-08-23T05:48:51.252Z,15.80
2023-08-23T05:51:19.701Z,15.90
2023-08-23T05:53:48.233Z,15.90
2023-08-23T05:56:18.021Z,16.00
2023-08-23T05:58:46.366Z,16.10
2023-08-23T06:01:14.838Z,16.20
2023-08-23T06:03:43.748Z,16.20
2023-08-23T06:06:12.269Z,16.30
2023-08-23T06:08:40.756Z,16.40
2023-08-23T06:11:09.223Z,16.50
2023-08-23T06:13:38.900Z,16.60
2023-08-23T06:16:07.351Z,16.70
2023-08-23T06:18:35.741Z,16.80
2023-08-23T06:21:05.252Z,16.90
2023-08-23T06:23:33.699Z,17.10
2023-08-23T06:26:04.730Z,17.10
2023-08-23T06:28:33.184Z,17.30
2023-08-23T06:31:03.081Z,17.40
2023-08-23T06:33:31.644Z,17.60
2023-08-23T06:36:00.057Z,17.70
2023-08-23T06:38:29.469Z,17.80
2023-08-23T06:40:57.954Z,18.00
2023-08-23T06:43:27.368Z,18.10
2023-08-23T06:45:55.833Z,18.30
2023-08-23T06:48:26.607Z,18.40
2023-08-23T06:50:55.353Z,18.60
2023-08-23T06:53:23.804Z,18.70
2023-08-23T06:55:53.132Z,18.90
2023-08-23T06:58:21.490Z,19.00
2023-08-23T07:00:49.995Z,19.20
2023-08-23T07:03:18.405Z,19.30
2023-08-23T07:05:48.365Z,19.50
2023-08-23T07:08:16.752Z,19.70
2023-08-23T07:10:45.494Z,19.80
2023-08-23T07:13:14.273Z,20.00
2023-08-23T07:15:42.777Z,20.20
2023-08-23T07:18:11.261Z,20.30
2023-08-23T07:20:39.705Z,20.40
2023-08-23T07:23:09.558Z,20.50
2023-08-23T07:25:38.018Z,20.70
2023-08-23T07:28:07.320Z,20.80
2023-08-23T07:30:35.791Z,20.80
2023-08-23T07:33:04.928Z,21.10
2023-08-23T07:35:33.489Z,21.20
2023-08-23T07:38:01.978Z,21.30
2023-08-23T07:40:31.970Z,21.30
2023-08-23T07:43:00.463Z,21.40
2023-08-23T07:45:29.058Z,21.50
2023-08-23T07:47:57.534Z,21.50
2023-08-23T07:50:26.007Z,21.70
2023-08-23T07:52:55.171Z,21.80
2023-08-23T07:55:23.588Z,21.90
2023-08-23T07:57:53.470Z,22.00
2023-08-23T08:00:22.515Z,22.10
2023-08-23T08:02:50.986Z,22.20
2023-08-23T08:05:19.499Z,22.20
2023-08-23T08:08:07.590Z,22.30
2023-08-23T08:10:36.644Z,22.30
2023-08-23T08:13:07.040Z,22.40
2023-08-23T08:15:35.720Z,22.50
2023-08-23T08:18:05.128Z,22.50
2023-08-23T08:20:33.752Z,22.60
2023-08-23T08:23:02.328Z,22.60
2023-08-23T08:25:31.931Z,22.50
2023-08-23T08:28:00.366Z,22.50
2023-08-23T08:30:30.212Z,22.50
2023-08-23T08:32:58.744Z,22.60
2023-08-23T08:35:27.295Z,22.60
2023-08-23T08:37:55.706Z,22.80
2023-08-23T08:40:24.665Z,22.90
2023-08-23T08:42:53.562Z,23.00
2023-08-23T08:45:22.482Z,23.10
2023-08-23T08:47:53.098Z,23.10
2023-08-23T08:50:22.354Z,23.10
2023-08-23T08:52:54.253Z,23.30
2023-08-23T08:55:23.949Z,23.30
2023-08-23T08:57:54.609Z,23.40
2023-08-23T09:00:26.241Z,23.40
2023-08-23T09:02:58.147Z,23.60
2023-08-23T09:05:27.398Z,23.70
2023-08-23T09:07:57.952Z,23.60
2023-08-23T09:10:27.057Z,23.80
2023-08-23T09:12:56.169Z,23.80
2023-08-23T09:15:25.958Z,23.80
2023-08-23T09:17:56.438Z,23.90
2023-08-23T09:20:25.502Z,24.00
2023-08-23T09:22:54.302Z,23.90
2023-08-23T09:25:24.383Z,24.10
2023-08-23T09:27:55.307Z,24.10
2023-08-23T09:30:24.164Z,24.20
2023-08-23T09:32:52.632Z,24.40
2023-08-23T09:35:22.587Z,24.40
2023-08-23T09:37:51.823Z,24.40
2023-08-23T09:40:21.838Z,24.60
2023-08-23T09:42:51.344Z,24.70
2023-08-23T09:45:22.168Z,24.80
2023-08-23T09:47:55.337Z,24.90
2023-08-23T09:50:26.888Z,24.90
2023-08-23T09:53:01.600Z,24.90
2023-08-23T09:55:32.679Z,24.90
2023-08-23T09:58:02.193Z,24.90
2023-08-23T10:00:31.344Z,25.00
2023-08-23T10:03:00.512Z,25.10
2023-08-23T10:05:31.040Z,25.30
2023-08-23T10:07:59.439Z,25.40
2023-08-23T10:10:30.954Z,25.20
2023-08-23T10:13:05.464Z,25.30
2023-08-23T10:15:35.904Z,25.30
2023-08-23T10:18:07.070Z,25.30
2023-08-23T10:20:38.100Z,25.30
2023-08-23T10:23:14.027Z,25.30
2023-08-23T10:25:43.737Z,25.50
2023-08-23T10:28:16.242Z,25.60
2023-08-23T10:30:46.057Z,25.80
2023-08-23T10:33:16.186Z,25.90
2023-08-23T10:35:47.857Z,26.00
2023-08-23T10:38:16.917Z,26.10
2023-08-23T10:40:47.197Z,26.00
2023-08-23T10:43:16.833Z,26.00
2023-08-23T10:45:57.328Z,26.20
2023-08-23T10:48:26.338Z,26.10
2023-08-23T10:50:56.842Z,26.10
2023-08-23T10:53:28.499Z,26.20
2023-08-23T10:55:57.986Z,26.40
2023-08-23T10:58:26.521Z,26.50
2023-08-23T11:00:55.647Z,26.50
2023-08-23T11:03:25.545Z,26.50
2023-08-23T11:05:56.906Z,26.60
2023-08-23T11:08:25.909Z,26.70
2023-08-23T11:10:54.530Z,26.70
2023-08-23T11:13:22.940Z,26.80
2023-08-23T11:15:51.546Z,26.80
2023-08-23T11:18:20.080Z,26.90
2023-08-23T11:20:48.781Z,27.00
2023-08-23T11:23:18.661Z,27.00
2023-08-23T11:25:48.036Z,27.00
2023-08-23T11:28:20.839Z,27.00
2023-08-23T11:30:51.205Z,27.00
2023-08-23T11:33:20.244Z,27.20
2023-08-23T11:35:48.767Z,27.20
2023-08-23T11:38:18.726Z,27.40
2023-08-23T11:40:50.378Z,27.50
2023-08-23T11:43:22.824Z,27.50
2023-08-23T11:45:53.733Z,27.60
2023-08-23T11:48:24.962Z,27.80
2023-08-23T11:50:54.240Z,27.60
2023-08-23T11:53:24.019Z,27.70
2023-08-23T11:55:53.118Z,27.90
2023-08-23T11:58:22.557Z,27.90
2023-08-23T12:00:52.073Z,28.00
2023-08-23T12:03:21.539Z,28.10
2023-08-23T12:05:49.912Z,28.10
2023-08-23T12:08:18.293Z,28.00
2023-08-23T12:10:48.839Z,28.10
2023-08-23T12:13:17.296Z,28.20
2023-08-23T12:15:45.722Z,28.20
2023-08-23T12:18:14.200Z,28.30
2023-08-23T12:20:43.954Z,28.30
2023-08-23T12:23:13.382Z,28.50
2023-08-23T12:25:41.938Z,28.50
2023-08-23T12:28:11.810Z,28.50
2023-08-23T12:30:40.586Z,28.50
2023-08-23T12:33:09.113Z,28.60
2023-08-23T12:35:37.556Z,28.80
2023-08-23T12:38:06.306Z,28.80
2023-08-23T12:40:34.857Z,28.80
2023-08-23T12:43:04.422Z,28.70
2023-08-23T12:45:34.317Z,28.70
2023-08-23T12:48:03.130Z,28.80
2023-08-23T12:50:31.676Z,28.50
2023-08-23T12:53:00.277Z,28.50
2023-08-23T12:55:28.777Z,28.70
2023-08-23T12:57:57.248Z,28.80
2023-08-23T13:00:30.843Z,28.80
2023-08-23T13:03:02.961Z,29.00
2023-08-23T13:05:31.585Z,29.20
2023-08-23T13:08:00.103Z,29.20
2023-08-23T13:10:28.481Z,29.10
2023-08-23T13:12:56.924Z,29.10
2023-08-23T13:15:25.334Z,29.10
2023-08-23T13:17:56.706Z,29.00
2023-08-23T13:20:26.925Z,29.00
2023-08-23T13:22:55.895Z,29.10
2023-08-23T13:25:24.302Z,29.20
2023-08-23T13:27:52.847Z,29.40
2023-08-23T13:30:21.411Z,29.50
2023-08-23T13:32:49.966Z,29.60
2023-08-23T13:35:18.618Z,29.60
2023-08-23T13:37:48.774Z,29.80
2023-08-23T13:40:17.558Z,29.80
2023-08-23T13:42:46.078Z,29.80
2023-08-23T13:45:14.484Z,29.70
2023-08-23T13:47:43.084Z,29.60
2023-08-23T13:50:11.881Z,29.60
2023-08-23T13:52:40.345Z,29.80
2023-08-23T13:55:11.154Z,29.80
2023-08-23T13:57:39.651Z,30.00
2023-08-23T14:00:09.772Z,30.10
2023-08-23T14:02:39.413Z,30.10
2023-08-23T14:05:08.720Z,30.20
2023-08-23T14:07:37.345Z,30.20
2023-08-23T14:10:06.666Z,30.30
2023-08-23T14:12:37.466Z,30.10
2023-08-23T14:15:06.917Z,29.90
2023-08-23T14:17:35.305Z,29.90
2023-08-23T14:20:06.731Z,29.80
2023-08-23T14:22:35.157Z,29.80
2023-08-23T14:25:04.883Z,29.70
2023-08-23T14:27:33.862Z,29.80
2023-08-23T14:30:03.816Z,29.70
2023-08-23T14:32:32.489Z,29.80
2023-08-23T14:35:00.888Z,30.00
2023-08-23T14:37:29.305Z,30.10
2023-08-23T14:39:57.764Z,30.20
2023-08-23T14:42:28.388Z,30.10
2023-08-23T14:44:57.593Z,30.20
2023-08-23T14:47:27.482Z,30.30
2023-08-23T14:49:55.882Z,30.50
2023-08-23T14:52:24.261Z,30.60
2023-08-23T14:54:52.841Z,30.60
2023-08-23T14:57:22.460Z,30.60
2023-08-23T14:59:50.945Z,30.60
2023-08-23T15:02:19.662Z,30.60
2023-08-23T15:04:49.497Z,30.60
2023-08-23T15:07:19.665Z,30.30
2023-08-23T15:09:49.970Z,30.10
2023-08-23T15:12:18.494Z,29.90
2023-08-23T15:14:47.052Z,29.80
2023-08-23T15:17:15.815Z,29.70
2023-08-23T15:19:46.334Z,29.60
2023-08-23T15:22:16.148Z,29.70
2023-08-23T15:24:44.848Z,29.70
2023-08-23T15:27:13.280Z,29.60
2023-08-23T15:29:49.457Z,29.50
2023-08-23T15:32:29.816Z,29.40
2023-08-23T15:34:59.529Z,29.60
2023-08-23T15:37:29.373Z,29.50
2023-08-23T15:39:57.818Z,29.70
2023-08-23T15:42:26.312Z,29.80
2023-08-23T15:44:54.931Z,29.90
2023-08-23T15:47:23.464Z,29.80
2023-08-23T15:49:51.950Z,29.70
2023-08-23T15:52:20.483Z,29.60
2023-08-23T15:54:51.920Z,29.60
2023-08-23T15:57:21.448Z,29.30
2023-08-23T15:59:50.068Z,29.10
2023-08-23T16:02:18.755Z,29.10
2023-08-23T16:04:47.340Z,29.00
2023-08-23T16:07:15.784Z,29.10
2023-08-23T16:09:44.214Z,29.10
2023-08-23T16:12:14.042Z,29.00
2023-08-23T16:14:42.429Z,29.10
2023-08-23T16:17:10.864Z,29.10
2023-08-23T16:19:39.713Z,29.10
2023-08-23T16:22:08.134Z,29.10
2023-08-23T16:24:38.805Z,29.10
2023-08-23T16:27:07.386Z,29.00
2023-08-23T16:29:37.232Z,29.00
2023-08-23T16:32:06.878Z,29.10
2023-08-23T16:34:35.354Z,29.00
2023-08-23T16:37:04.264Z,28.90
2023-08-23T16:39:32.801Z,29.00
2023-08-23T16:42:01.192Z,29.00
2023-08-23T16:44:30.073Z,29.00
2023-08-23T16:46:59.857Z,29.00
2023-08-23T16:49:28.450Z,29.00
2023-08-23T16:51:56.826Z,29.10
2023-08-23T16:54:25.417Z,29.00
2023-08-23T16:56:53.827Z,28.90
2023-08-23T16:59:22.174Z,28.90
2023-08-23T17:01:50.628Z,28.70
2023-08-23T17:04:21.763Z,28.70
2023-08-23T17:06:50.199Z,28.60
2023-08-23T17:09:18.680Z,28.70
2023-08-23T17:11:47.132Z,28.60
2023-08-23T17:14:15.566Z,28.60
2023-08-23T17:16:43.965Z,28.50
2023-08-23T17:19:12.461Z,28.50
2023-08-23T17:21:42.262Z,28.40
2023-08-23T17:24:10.686Z,28.50
2023-08-23T17:26:39.085Z,28.40
2023-08-23T17:29:07.457Z,28.50
2023-08-23T17:31:35.846Z,28.40
2023-08-23T17:34:05.120Z,28.30
2023-08-23T17:36:35.560Z,28.30
2023-08-23T17:39:05.639Z,28.20
2023-08-23T17:41:34.067Z,28.10
2023-08-23T17:44:02.452Z,28.00
2023-08-23T17:46:38.231Z,27.90
2023-08-23T17:49:07.437Z,28.00
2023-08-23T17:51:36.979Z,27.90
2023-08-23T17:54:08.986Z,27.80
2023-08-23T17:56:37.580Z,27.80
2023-08-23T17:59:06.965Z,27.80
2023-08-23T18:01:35.391Z,27.70
2023-08-23T18:04:03.875Z,27.60
2023-08-23T18:06:33.006Z,27.50
2023-08-23T18:09:01.402Z,27.50
2023-08-23T18:11:31.849Z,27.40
2023-08-23T18:14:00.549Z,27.20
2023-08-23T18:16:29.059Z,27.10
2023-08-23T18:18:57.460Z,27.00
2023-08-23T18:21:27.381Z,26.90
2023-08-23T18:23:56.536Z,26.70
2023-08-23T18:26:25.106Z,26.50
2023-08-23T18:28:56.446Z,26.40
2023-08-23T18:31:25.084Z,26.30
2023-08-23T18:33:53.468Z,26.10
2023-08-23T18:36:21.963Z,26.00
2023-08-23T18:38:50.325Z,25.90
2023-08-23T18:41:18.708Z,25.80
2023-08-23T18:43:47.126Z,25.60
2023-08-23T18:46:16.962Z,25.50
2023-08-23T18:48:45.631Z,25.40
2023-08-23T18:51:14.093Z,25.30
2023-08-23T18:53:43.630Z,25.10
2023-08-23T18:56:12.194Z,25.00
2023-08-23T18:58:40.625Z,24.90
2023-08-23T19:01:09.031Z,24.70
2023-08-23T19:03:38.973Z,24.60
2023-08-23T19:06:07.497Z,24.50
2023-08-23T19:08:35.968Z,24.40
2023-08-23T19:11:04.330Z,24.30
2023-08-23T19:13:35.008Z,24.20
2023-08-23T19:16:03.437Z,24.10
2023-08-23T19:18:33.830Z,24.00
2023-08-23T19:21:04.909Z,23.90
2023-08-23T19:23:33.471Z,23.90
2023-08-23T19:26:01.873Z,23.80
2023-08-23T19:28:30.307Z,23.80
2023-08-23T19:30:58.712Z,23.70
2023-08-23T19:33:27.199Z,23.60
2023-08-23T19:35:56.701Z,23.60
2023-08-23T19:38:26.468Z,23.50
2023-08-23T19:40:56.958Z,23.50
2023-08-23T19:43:26.319Z,23.40
2023-08-23T19:45:55.459Z,23.30
2023-08-23T19:48:31.460Z,23.20
2023-08-23T19:51:03.705Z,23.20
2023-08-23T19:53:33.840Z,23.10
2023-08-23T19:56:05.610Z,23.00
2023-08-23T19:58:35.138Z,22.90
2023-08-23T20:01:04.165Z,22.90
2023-08-23T20:03:32.964Z,22.80
2023-08-23T20:06:01.602Z,22.70
2023-08-23T20:08:32.061Z,22.60
2023-08-23T20:11:04.005Z,22.50
2023-08-23T20:13:32.631Z,22.60
2023-08-23T20:16:02.310Z,22.50
2023-08-23T20:18:30.733Z,22.40
2023-08-23T20:20:59.192Z,22.40
2023-08-23T20:23:28.796Z,22.30
2023-08-23T20:25:57.287Z,22.30
2023-08-23T20:28:27.159Z,22.30
2023-08-23T20:30:56.896Z,22.20
2023-08-23T20:33:25.436Z,22.10
2023-08-23T20:35:53.976Z,22.10
2023-08-23T20:38:22.407Z,22.00
2023-08-23T20:40:50.914Z,21.90
2023-08-23T20:43:19.261Z,21.90
2023-08-23T20:45:49.030Z,21.80
2023-08-23T20:48:18.549Z,21.80
2023-08-23T20:50:47.063Z,21.70
2023-08-23T20:53:15.446Z,21.60
2023-08-23T20:55:43.795Z,21.60
2023-08-23T20:58:13.231Z,21.60
2023-08-23T21:00:42.650Z,21.50
2023-08-23T21:03:12.444Z,21.50
2023-08-23T21:05:43.506Z,21.40
2023-08-23T21:08:12.118Z,21.40
2023-08-23T21:10:41.365Z,21.30
2023-08-23T21:13:10.072Z,21.20
2023-08-23T21:15:44.328Z,21.20
2023-08-23T21:18:16.311Z,21.10
2023-08-23T21:20:45.140Z,21.10
2023-08-23T21:23:13.821Z,21.00
2023-08-23T21:25:42.233Z,21.00
2023-08-23T21:28:10.713Z,21.00
2023-08-23T21:30:40.149Z,20.90
2023-08-23T21:33:08.700Z,20.90
2023-08-23T21:35:39.354Z,20.90
2023-08-23T21:38:07.888Z,20.90
2023-08-23T21:40:36.338Z,20.80
2023-08-23T21:43:05.027Z,20.80
2023-08-23T21:45:34.480Z,20.70
2023-08-23T21:48:04.024Z,20.70
2023-08-23T21:50:33.924Z,20.60
2023-08-23T21:53:03.724Z,20.60
2023-08-23T21:55:32.811Z,20.60
2023-08-23T21:58:01.211Z,20.50
2023-08-23T22:00:29.943Z,20.50
2023-08-23T22:02:58.536Z,20.40
2023-08-23T22:05:27.721Z,20.40
2023-08-23T22:07:56.863Z,20.40
2023-08-23T22:10:26.788Z,20.30
2023-08-23T22:12:55.161Z,20.40
2023-08-23T22:15:23.542Z,20.30
2023-08-23T22:17:52.183Z,20.30
2023-08-23T22:20:21.139Z,20.20
2023-08-23T22:22:49.573Z,20.20
2023-08-23T22:25:18.364Z,20.10
2023-08-23T22:27:48.298Z,20.10
2023-08-23T22:30:16.998Z,20.10
2023-08-23T22:32:45.479Z,20.10
2023-08-23T22:35:13.980Z,20.10
2023-08-23T22:37:42.285Z,20.10
2023-08-23T22:40:11.214Z,20.10
2023-08-23T22:42:39.500Z,20.10
2023-08-23T22:45:10.863Z,20.10
2023-08-23T22:47:39.348Z,20.10
2023-08-23T22:50:09.579Z,20.10
2023-08-23T22:52:37.966Z,20.10
2023-08-23T22:55:07.506Z,20.00
2023-08-23T22:57:41.991Z,20.00
2023-08-23T23:00:14.090Z,19.90
2023-08-23T23:02:42.956Z,19.90
2023-08-23T23:05:13.012Z,19.90
2023-08-23T23:07:41.633Z,19.90
2023-08-23T23:10:10.611Z,19.90
2023-08-23T23:12:39.935Z,19.90
2023-08-23T23:15:09.293Z,19.90
2023-08-23T23:17:40.667Z,19.80
2023-08-23T23:20:13.352Z,19.80
2023-08-23T23:22:42.326Z,19.80
2023-08-23T23:25:11.472Z,19.80
2023-08-23T23:27:39.943Z,19.70
2023-08-23T23:30:09.256Z,19.70
2023-08-23T23:32:39.054Z,19.70
2023-08-23T23:35:07.817Z,19.70
2023-08-23T23:37:37.277Z,19.70
2023-08-23T23:40:10.113Z,19.60
2023-08-23T23:42:38.824Z,19.60
2023-08-23T23:45:08.253Z,19.70
2023-08-23T23:47:38.104Z,19.70
2023-08-23T23:50:08.792Z,19.70
2023-08-23T23:52:37.198Z,19.70
2023-08-23T23:55:06.685Z,19.70
2023-08-23T23:57:35.153Z,19.70
